sensor_id;sensor_type;location;lat;lon;timestamp;temperature;humidity
80210;DHT22;69529;37.974;23.708;2023-04-30T00:00:48;21.40;49.80
80210;DHT22;69529;37.974;23.708;2023-04-30T00:03:16;21.40;50.10
80210;DHT22;69529;37.974;23.708;2023-04-30T00:05:44;21.40;49.80
80210;DHT22;69529;37.974;23.708;2023-04-30T00:08:11;21.40;49.80
80210;DHT22;69529;37.974;23.708;2023-04-30T00:10:39;21.40;50.10
80210;DHT22;69529;37.974;23.708;2023-04-30T00:13:06;21.40;50.20
80210;DHT22;69529;37.974;23.708;2023-04-30T00:15:36;21.40;50.40
80210;DHT22;69529;37.974;23.708;2023-04-30T00:18:03;21.40;50.30
80210;DHT22;69529;37.974;23.708;2023-04-30T00:20:32;21.40;50.60
80210;DHT22;69529;37.974;23.708;2023-04-30T00:23:01;21.40;50.80
80210;DHT22;69529;37.974;23.708;2023-04-30T00:25:28;21.40;50.80
80210;DHT22;69529;37.974;23.708;2023-04-30T00:27:56;21.40;51.50
80210;DHT22;69529;37.974;23.708;2023-04-30T00:30:24;21.40;50.90
80210;DHT22;69529;37.974;23.708;2023-04-30T00:32:51;21.40;50.90
80210;DHT22;69529;37.974;23.708;2023-04-30T00:35:19;21.40;51.10
80210;DHT22;69529;37.974;23.708;2023-04-30T00:37:46;21.40;51.00
80210;DHT22;69529;37.974;23.708;2023-04-30T00:40:14;21.40;50.90
80210;DHT22;69529;37.974;23.708;2023-04-30T00:42:42;21.40;51.10
80210;DHT22;69529;37.974;23.708;2023-04-30T00:45:10;21.40;51.20
80210;DHT22;69529;37.974;23.708;2023-04-30T00:47:37;21.40;51.40
80210;DHT22;69529;37.974;23.708;2023-04-30T00:50:06;21.40;51.50
80210;DHT22;69529;37.974;23.708;2023-04-30T00:52:35;21.40;51.50
80210;DHT22;69529;37.974;23.708;2023-04-30T00:55:03;21.40;51.40
80210;DHT22;69529;37.974;23.708;2023-04-30T00:57:32;21.40;51.40
80210;DHT22;69529;37.974;23.708;2023-04-30T01:00:01;21.40;51.90
80210;DHT22;69529;37.974;23.708;2023-04-30T01:02:30;21.40;51.40
80210;DHT22;69529;37.974;23.708;2023-04-30T01:04:58;21.30;51.30
80210;DHT22;69529;37.974;23.708;2023-04-30T01:07:25;21.30;51.20
80210;DHT22;69529;37.974;23.708;2023-04-30T01:09:54;21.30;51.20
80210;DHT22;69529;37.974;23.708;2023-04-30T01:15:28;21.30;51.30
80210;DHT22;69529;37.974;23.708;2023-04-30T01:20:33;21.30;51.50
80210;DHT22;69529;37.974;23.708;2023-04-30T01:26:00;21.30;51.40
80210;DHT22;69529;37.974;23.708;2023-04-30T01:28:27;21.30;51.60
80210;DHT22;69529;37.974;23.708;2023-04-30T01:30:55;21.30;51.50
80210;DHT22;69529;37.974;23.708;2023-04-30T01:33:22;21.20;51.40
80210;DHT22;69529;37.974;23.708;2023-04-30T01:41:19;21.20;51.30
80210;DHT22;69529;37.974;23.708;2023-04-30T01:43:43;21.20;51.20
80210;DHT22;69529;37.974;23.708;2023-04-30T01:46:19;21.20;51.20
80210;DHT22;69529;37.974;23.708;2023-04-30T01:49:11;21.20;51.30
80210;DHT22;69529;37.974;23.708;2023-04-30T01:57:07;21.20;51.20
80210;DHT22;69529;37.974;23.708;2023-04-30T01:59:37;21.20;51.10
80210;DHT22;69529;37.974;23.708;2023-04-30T02:02:05;21.20;51.20
80210;DHT22;69529;37.974;23.708;2023-04-30T02:04:33;21.20;51.20
80210;DHT22;69529;37.974;23.708;2023-04-30T02:07:01;21.20;51.20
80210;DHT22;69529;37.974;23.708;2023-04-30T02:09:29;21.20;51.10
80210;DHT22;69529;37.974;23.708;2023-04-30T02:11:57;21.20;51.10
80210;DHT22;69529;37.974;23.708;2023-04-30T02:14:25;21.20;51.10
80210;DHT22;69529;37.974;23.708;2023-04-30T02:16:53;21.20;51.10
80210;DHT22;69529;37.974;23.708;2023-04-30T02:19:20;21.20;51.00
80210;DHT22;69529;37.974;23.708;2023-04-30T02:21:48;21.20;51.10
80210;DHT22;69529;37.974;23.708;2023-04-30T02:24:16;21.20;51.10
80210;DHT22;69529;37.974;23.708;2023-04-30T02:26:43;21.20;51.10
80210;DHT22;69529;37.974;23.708;2023-04-30T02:29:11;21.20;51.00
80210;DHT22;69529;37.974;23.708;2023-04-30T02:31:39;21.20;51.00
80210;DHT22;69529;37.974;23.708;2023-04-30T02:34:06;21.20;51.00
80210;DHT22;69529;37.974;23.708;2023-04-30T02:36:34;21.20;51.10
80210;DHT22;69529;37.974;23.708;2023-04-30T02:39:02;21.20;51.10
80210;DHT22;69529;37.974;23.708;2023-04-30T02:41:30;21.20;51.10
80210;DHT22;69529;37.974;23.708;2023-04-30T02:43:57;21.20;51.10
80210;DHT22;69529;37.974;23.708;2023-04-30T02:46:25;21.20;51.10
80210;DHT22;69529;37.974;23.708;2023-04-30T02:48:53;21.20;51.10
80210;DHT22;69529;37.974;23.708;2023-04-30T02:51:21;21.20;51.10
80210;DHT22;69529;37.974;23.708;2023-04-30T02:53:48;21.20;51.20
80210;DHT22;69529;37.974;23.708;2023-04-30T02:56:17;21.20;51.20
80210;DHT22;69529;37.974;23.708;2023-04-30T02:58:45;21.20;51.20
80210;DHT22;69529;37.974;23.708;2023-04-30T03:01:13;21.20;51.20
80210;DHT22;69529;37.974;23.708;2023-04-30T03:03:41;21.20;51.20
80210;DHT22;69529;37.974;23.708;2023-04-30T03:06:09;21.20;51.30
80210;DHT22;69529;37.974;23.708;2023-04-30T03:08:36;21.20;51.30
80210;DHT22;69529;37.974;23.708;2023-04-30T03:11:04;21.20;51.30
80210;DHT22;69529;37.974;23.708;2023-04-30T03:13:32;21.20;51.30
80210;DHT22;69529;37.974;23.708;2023-04-30T03:16:01;21.20;51.30
80210;DHT22;69529;37.974;23.708;2023-04-30T03:18:31;21.10;51.80
80210;DHT22;69529;37.974;23.708;2023-04-30T03:20:59;21.10;51.30
80210;DHT22;69529;37.974;23.708;2023-04-30T03:23:27;21.10;51.30
80210;DHT22;69529;37.974;23.708;2023-04-30T03:25:55;21.10;51.30
80210;DHT22;69529;37.974;23.708;2023-04-30T03:28:22;21.10;51.30
80210;DHT22;69529;37.974;23.708;2023-04-30T03:30:50;21.10;51.30
80210;DHT22;69529;37.974;23.708;2023-04-30T03:33:17;21.20;51.40
80210;DHT22;69529;37.974;23.708;2023-04-30T03:35:45;21.10;51.30
80210;DHT22;69529;37.974;23.708;2023-04-30T03:38:13;21.20;51.40
80210;DHT22;69529;37.974;23.708;2023-04-30T03:40:40;21.20;51.40
80210;DHT22;69529;37.974;23.708;2023-04-30T03:43:08;21.20;51.40
80210;DHT22;69529;37.974;23.708;2023-04-30T03:45:36;21.20;51.40
80210;DHT22;69529;37.974;23.708;2023-04-30T03:48:04;21.20;51.50
80210;DHT22;69529;37.974;23.708;2023-04-30T03:50:31;21.20;51.60
80210;DHT22;69529;37.974;23.708;2023-04-30T03:52:59;21.20;51.70
80210;DHT22;69529;37.974;23.708;2023-04-30T03:55:27;21.20;51.80
80210;DHT22;69529;37.974;23.708;2023-04-30T03:57:55;21.10;51.80
80210;DHT22;69529;37.974;23.708;2023-04-30T04:00:23;21.10;51.80
80210;DHT22;69529;37.974;23.708;2023-04-30T04:02:50;21.10;51.80
80210;DHT22;69529;37.974;23.708;2023-04-30T04:05:18;21.10;51.80
80210;DHT22;69529;37.974;23.708;2023-04-30T04:07:46;21.20;51.90
80210;DHT22;69529;37.974;23.708;2023-04-30T04:10:14;21.10;51.90
80210;DHT22;69529;37.974;23.708;2023-04-30T04:12:42;21.10;51.90
80210;DHT22;69529;37.974;23.708;2023-04-30T04:15:10;21.10;52.00
80210;DHT22;69529;37.974;23.708;2023-04-30T04:17:37;21.10;51.90
80210;DHT22;69529;37.974;23.708;2023-04-30T04:20:06;21.10;52.00
80210;DHT22;69529;37.974;23.708;2023-04-30T04:22:34;21.10;52.00
80210;DHT22;69529;37.974;23.708;2023-04-30T04:25:01;21.10;52.10
80210;DHT22;69529;37.974;23.708;2023-04-30T04:27:29;21.10;52.10
80210;DHT22;69529;37.974;23.708;2023-04-30T04:29:57;21.10;52.10
80210;DHT22;69529;37.974;23.708;2023-04-30T04:32:24;21.20;52.10
80210;DHT22;69529;37.974;23.708;2023-04-30T04:34:52;21.20;52.10
80210;DHT22;69529;37.974;23.708;2023-04-30T04:37:20;21.20;52.10
80210;DHT22;69529;37.974;23.708;2023-04-30T04:39:48;21.20;52.20
80210;DHT22;69529;37.974;23.708;2023-04-30T04:42:16;21.20;52.30
80210;DHT22;69529;37.974;23.708;2023-04-30T04:44:45;21.10;52.20
80210;DHT22;69529;37.974;23.708;2023-04-30T04:47:13;21.10;52.30
80210;DHT22;69529;37.974;23.708;2023-04-30T04:49:42;21.10;52.30
80210;DHT22;69529;37.974;23.708;2023-04-30T04:52:09;21.10;52.30
80210;DHT22;69529;37.974;23.708;2023-04-30T04:54:37;21.10;52.30
80210;DHT22;69529;37.974;23.708;2023-04-30T04:57:05;21.10;52.40
80210;DHT22;69529;37.974;23.708;2023-04-30T04:59:32;21.20;52.40
80210;DHT22;69529;37.974;23.708;2023-04-30T05:02:00;21.10;52.50
80210;DHT22;69529;37.974;23.708;2023-04-30T05:04:28;21.20;52.60
80210;DHT22;69529;37.974;23.708;2023-04-30T05:06:56;21.10;52.40
80210;DHT22;69529;37.974;23.708;2023-04-30T05:09:23;21.10;52.60
80210;DHT22;69529;37.974;23.708;2023-04-30T05:11:51;21.20;52.60
80210;DHT22;69529;37.974;23.708;2023-04-30T05:14:19;21.20;52.70
80210;DHT22;69529;37.974;23.708;2023-04-30T05:16:46;21.20;52.70
80210;DHT22;69529;37.974;23.708;2023-04-30T05:19:15;21.20;52.70
80210;DHT22;69529;37.974;23.708;2023-04-30T05:21:42;21.20;52.70
80210;DHT22;69529;37.974;23.708;2023-04-30T05:24:10;21.20;52.60
80210;DHT22;69529;37.974;23.708;2023-04-30T05:26:38;21.20;52.80
80210;DHT22;69529;37.974;23.708;2023-04-30T05:29:05;21.20;52.80
80210;DHT22;69529;37.974;23.708;2023-04-30T05:31:33;21.20;52.80
80210;DHT22;69529;37.974;23.708;2023-04-30T05:34:01;21.20;52.80
80210;DHT22;69529;37.974;23.708;2023-04-30T05:36:29;21.20;52.90
80210;DHT22;69529;37.974;23.708;2023-04-30T05:38:57;21.20;52.90
80210;DHT22;69529;37.974;23.708;2023-04-30T05:41:25;21.20;52.90
80210;DHT22;69529;37.974;23.708;2023-04-30T05:43:53;21.20;52.80
80210;DHT22;69529;37.974;23.708;2023-04-30T05:46:21;21.20;52.70
80210;DHT22;69529;37.974;23.708;2023-04-30T05:48:48;21.20;52.60
80210;DHT22;69529;37.974;23.708;2023-04-30T05:51:16;21.30;53.10
80210;DHT22;69529;37.974;23.708;2023-04-30T05:53:43;21.30;52.60
80210;DHT22;69529;37.974;23.708;2023-04-30T05:56:11;21.30;52.50
80210;DHT22;69529;37.974;23.708;2023-04-30T05:58:39;21.30;52.60
80210;DHT22;69529;37.974;23.708;2023-04-30T06:01:07;21.30;52.50
80210;DHT22;69529;37.974;23.708;2023-04-30T06:03:36;21.30;52.50
80210;DHT22;69529;37.974;23.708;2023-04-30T06:06:04;21.30;52.50
80210;DHT22;69529;37.974;23.708;2023-04-30T06:08:32;21.30;52.50
80210;DHT22;69529;37.974;23.708;2023-04-30T06:11:00;21.30;52.50
80210;DHT22;69529;37.974;23.708;2023-04-30T06:13:30;21.30;52.30
80210;DHT22;69529;37.974;23.708;2023-04-30T06:15:58;21.30;52.40
80210;DHT22;69529;37.974;23.708;2023-04-30T06:18:25;21.40;52.30
80210;DHT22;69529;37.974;23.708;2023-04-30T06:20:53;21.40;52.30
80210;DHT22;69529;37.974;23.708;2023-04-30T06:23:21;21.40;52.30
80210;DHT22;69529;37.974;23.708;2023-04-30T06:25:48;21.40;52.20
80210;DHT22;69529;37.974;23.708;2023-04-30T06:28:16;21.40;52.80
80210;DHT22;69529;37.974;23.708;2023-04-30T06:30:44;21.50;52.10
80210;DHT22;69529;37.974;23.708;2023-04-30T06:33:11;21.50;52.10
80210;DHT22;69529;37.974;23.708;2023-04-30T06:35:39;21.50;52.10
80210;DHT22;69529;37.974;23.708;2023-04-30T06:38:07;21.50;52.30
80210;DHT22;69529;37.974;23.708;2023-04-30T06:40:35;21.50;52.10
80210;DHT22;69529;37.974;23.708;2023-04-30T06:43:02;21.60;52.20
80210;DHT22;69529;37.974;23.708;2023-04-30T06:45:30;21.60;51.80
80210;DHT22;69529;37.974;23.708;2023-04-30T06:47:58;21.60;52.00
80210;DHT22;69529;37.974;23.708;2023-04-30T06:50:25;21.70;52.40
80210;DHT22;69529;37.974;23.708;2023-04-30T06:52:53;21.70;51.70
80210;DHT22;69529;37.974;23.708;2023-04-30T06:55:23;21.80;51.60
80210;DHT22;69529;37.974;23.708;2023-04-30T06:57:50;21.80;51.50
80210;DHT22;69529;37.974;23.708;2023-04-30T07:00:18;21.90;51.60
80210;DHT22;69529;37.974;23.708;2023-04-30T07:02:45;21.90;51.50
80210;DHT22;69529;37.974;23.708;2023-04-30T07:05:14;21.90;51.30
80210;DHT22;69529;37.974;23.708;2023-04-30T07:07:42;21.90;51.20
80210;DHT22;69529;37.974;23.708;2023-04-30T07:10:10;22.00;51.30
80210;DHT22;69529;37.974;23.708;2023-04-30T07:12:38;22.00;50.90
80210;DHT22;69529;37.974;23.708;2023-04-30T07:15:06;22.00;50.70
80210;DHT22;69529;37.974;23.708;2023-04-30T07:17:34;22.00;50.70
80210;DHT22;69529;37.974;23.708;2023-04-30T07:20:03;22.00;50.80
80210;DHT22;69529;37.974;23.708;2023-04-30T07:22:31;22.00;50.70
80210;DHT22;69529;37.974;23.708;2023-04-30T07:24:59;22.10;50.80
80210;DHT22;69529;37.974;23.708;2023-04-30T07:27:28;22.10;50.60
80210;DHT22;69529;37.974;23.708;2023-04-30T07:29:55;22.10;50.60
80210;DHT22;69529;37.974;23.708;2023-04-30T07:32:23;22.10;50.30
80210;DHT22;69529;37.974;23.708;2023-04-30T07:34:53;22.10;50.30
80210;DHT22;69529;37.974;23.708;2023-04-30T07:37:21;22.10;50.40
80210;DHT22;69529;37.974;23.708;2023-04-30T07:39:48;22.10;50.40
80210;DHT22;69529;37.974;23.708;2023-04-30T07:42:16;22.10;50.00
80210;DHT22;69529;37.974;23.708;2023-04-30T07:44:43;22.20;50.10
80210;DHT22;69529;37.974;23.708;2023-04-30T07:47:11;22.20;50.00
80210;DHT22;69529;37.974;23.708;2023-04-30T07:49:39;22.20;49.90
80210;DHT22;69529;37.974;23.708;2023-04-30T07:52:07;22.20;49.70
80210;DHT22;69529;37.974;23.708;2023-04-30T07:54:36;22.20;49.60
80210;DHT22;69529;37.974;23.708;2023-04-30T07:57:06;22.20;49.50
80210;DHT22;69529;37.974;23.708;2023-04-30T07:59:33;22.20;49.60
80210;DHT22;69529;37.974;23.708;2023-04-30T08:02:01;22.30;49.80
80210;DHT22;69529;37.974;23.708;2023-04-30T08:04:29;22.30;49.80
80210;DHT22;69529;37.974;23.708;2023-04-30T08:06:57;22.30;49.80
80210;DHT22;69529;37.974;23.708;2023-04-30T08:09:24;22.40;49.40
80210;DHT22;69529;37.974;23.708;2023-04-30T08:11:52;22.40;49.20
80210;DHT22;69529;37.974;23.708;2023-04-30T08:14:20;22.40;49.40
80210;DHT22;69529;37.974;23.708;2023-04-30T08:16:47;22.40;49.20
80210;DHT22;69529;37.974;23.708;2023-04-30T08:19:15;22.40;49.30
80210;DHT22;69529;37.974;23.708;2023-04-30T08:21:42;22.40;49.40
80210;DHT22;69529;37.974;23.708;2023-04-30T08:24:10;22.40;49.20
80210;DHT22;69529;37.974;23.708;2023-04-30T08:26:38;22.50;49.10
80210;DHT22;69529;37.974;23.708;2023-04-30T08:29:06;22.50;48.70
80210;DHT22;69529;37.974;23.708;2023-04-30T08:31:34;22.60;48.80
80210;DHT22;69529;37.974;23.708;2023-04-30T08:34:02;22.70;48.40
80210;DHT22;69529;37.974;23.708;2023-04-30T08:36:30;22.70;48.20
80210;DHT22;69529;37.974;23.708;2023-04-30T08:38:57;22.70;48.30
80210;DHT22;69529;37.974;23.708;2023-04-30T08:41:31;22.80;48.20
80210;DHT22;69529;37.974;23.708;2023-04-30T08:44:00;22.80;48.30
80210;DHT22;69529;37.974;23.708;2023-04-30T08:46:32;22.80;48.40
80210;DHT22;69529;37.974;23.708;2023-04-30T08:49:02;22.80;48.50
80210;DHT22;69529;37.974;23.708;2023-04-30T08:51:30;22.90;48.30
80210;DHT22;69529;37.974;23.708;2023-04-30T08:53:59;22.90;48.20
80210;DHT22;69529;37.974;23.708;2023-04-30T08:56:27;22.90;48.00
80210;DHT22;69529;37.974;23.708;2023-04-30T08:58:56;22.90;47.70
80210;DHT22;69529;37.974;23.708;2023-04-30T09:01:24;23.00;47.80
80210;DHT22;69529;37.974;23.708;2023-04-30T09:03:53;23.00;47.60
80210;DHT22;69529;37.974;23.708;2023-04-30T09:06:20;23.00;47.50
80210;DHT22;69529;37.974;23.708;2023-04-30T09:08:48;23.10;47.30
80210;DHT22;69529;37.974;23.708;2023-04-30T09:11:26;23.00;47.00
80210;DHT22;69529;37.974;23.708;2023-04-30T09:13:56;23.10;47.40
80210;DHT22;69529;37.974;23.708;2023-04-30T09:16:25;23.10;47.00
80210;DHT22;69529;37.974;23.708;2023-04-30T09:18:53;23.10;46.90
80210;DHT22;69529;37.974;23.708;2023-04-30T09:21:35;23.20;46.90
80210;DHT22;69529;37.974;23.708;2023-04-30T09:24:04;23.20;46.80
80210;DHT22;69529;37.974;23.708;2023-04-30T09:26:38;23.30;47.00
80210;DHT22;69529;37.974;23.708;2023-04-30T09:29:02;23.20;47.00
80210;DHT22;69529;37.974;23.708;2023-04-30T09:31:33;23.20;46.90
80210;DHT22;69529;37.974;23.708;2023-04-30T09:34:02;23.30;46.80
80210;DHT22;69529;37.974;23.708;2023-04-30T09:36:30;23.20;46.80
80210;DHT22;69529;37.974;23.708;2023-04-30T09:39:08;23.30;46.80
80210;DHT22;69529;37.974;23.708;2023-04-30T09:41:37;23.30;46.80
80210;DHT22;69529;37.974;23.708;2023-04-30T09:44:05;23.30;47.00
80210;DHT22;69529;37.974;23.708;2023-04-30T09:46:34;23.30;46.70
80210;DHT22;69529;37.974;23.708;2023-04-30T09:49:04;23.30;46.70
80210;DHT22;69529;37.974;23.708;2023-04-30T09:51:33;23.40;46.70
80210;DHT22;69529;37.974;23.708;2023-04-30T09:54:02;23.40;46.60
80210;DHT22;69529;37.974;23.708;2023-04-30T09:56:31;23.40;46.60
80210;DHT22;69529;37.974;23.708;2023-04-30T09:59:02;23.40;46.50
80210;DHT22;69529;37.974;23.708;2023-04-30T10:01:32;23.40;46.70
80210;DHT22;69529;37.974;23.708;2023-04-30T10:04:02;23.40;46.60
80210;DHT22;69529;37.974;23.708;2023-04-30T10:06:30;23.50;46.60
80210;DHT22;69529;37.974;23.708;2023-04-30T10:09:01;23.50;46.40
80210;DHT22;69529;37.974;23.708;2023-04-30T10:11:31;23.50;47.00
80210;DHT22;69529;37.974;23.708;2023-04-30T10:14:09;23.40;46.40
80210;DHT22;69529;37.974;23.708;2023-04-30T10:16:45;23.40;46.50
80210;DHT22;69529;37.974;23.708;2023-04-30T10:19:29;23.40;46.60
80210;DHT22;69529;37.974;23.708;2023-04-30T10:21:52;23.50;46.50
80210;DHT22;69529;37.974;23.708;2023-04-30T10:24:20;23.50;46.40
80210;DHT22;69529;37.974;23.708;2023-04-30T10:26:48;23.50;46.40
80210;DHT22;69529;37.974;23.708;2023-04-30T10:29:17;23.50;46.40
80210;DHT22;69529;37.974;23.708;2023-04-30T10:31:46;23.50;46.40
80210;DHT22;69529;37.974;23.708;2023-04-30T10:34:20;23.40;46.60
80210;DHT22;69529;37.974;23.708;2023-04-30T10:36:59;23.40;46.70
80210;DHT22;69529;37.974;23.708;2023-04-30T10:39:26;23.50;46.70
80210;DHT22;69529;37.974;23.708;2023-04-30T10:42:05;23.40;46.70
80210;DHT22;69529;37.974;23.708;2023-04-30T10:44:35;23.50;46.70
80210;DHT22;69529;37.974;23.708;2023-04-30T10:47:05;23.50;46.70
80210;DHT22;69529;37.974;23.708;2023-04-30T10:49:33;23.50;46.60
80210;DHT22;69529;37.974;23.708;2023-04-30T10:52:02;23.50;46.60
80210;DHT22;69529;37.974;23.708;2023-04-30T10:54:34;23.50;46.50
80210;DHT22;69529;37.974;23.708;2023-04-30T10:57:15;23.50;46.50
80210;DHT22;69529;37.974;23.708;2023-04-30T10:59:52;23.50;46.60
80210;DHT22;69529;37.974;23.708;2023-04-30T11:02:20;23.50;46.60
80210;DHT22;69529;37.974;23.708;2023-04-30T11:05:14;23.60;46.60
80210;DHT22;69529;37.974;23.708;2023-04-30T11:07:51;23.60;46.60
80210;DHT22;69529;37.974;23.708;2023-04-30T11:10:23;23.60;46.50
80210;DHT22;69529;37.974;23.708;2023-04-30T11:12:57;23.60;46.50
80210;DHT22;69529;37.974;23.708;2023-04-30T11:15:26;23.60;46.40
80210;DHT22;69529;37.974;23.708;2023-04-30T11:17:58;23.70;46.40
80210;DHT22;69529;37.974;23.708;2023-04-30T11:20:27;23.70;46.30
80210;DHT22;69529;37.974;23.708;2023-04-30T11:23:13;23.70;46.30
80210;DHT22;69529;37.974;23.708;2023-04-30T11:25:46;23.70;46.30
80210;DHT22;69529;37.974;23.708;2023-04-30T11:28:24;23.70;46.20
80210;DHT22;69529;37.974;23.708;2023-04-30T11:30:53;23.80;46.30
80210;DHT22;69529;37.974;23.708;2023-04-30T11:33:23;23.70;46.20
80210;DHT22;69529;37.974;23.708;2023-04-30T11:35:52;23.70;46.10
80210;DHT22;69529;37.974;23.708;2023-04-30T11:38:25;23.80;46.10
80210;DHT22;69529;37.974;23.708;2023-04-30T11:40:51;23.80;45.90
80210;DHT22;69529;37.974;23.708;2023-04-30T11:43:25;23.80;45.80
80210;DHT22;69529;37.974;23.708;2023-04-30T11:46:08;23.80;45.90
80210;DHT22;69529;37.974;23.708;2023-04-30T11:48:38;23.80;45.80
80210;DHT22;69529;37.974;23.708;2023-04-30T11:51:19;23.90;45.70
80210;DHT22;69529;37.974;23.708;2023-04-30T11:53:49;23.80;45.60
80210;DHT22;69529;37.974;23.708;2023-04-30T11:56:18;23.80;45.50
80210;DHT22;69529;37.974;23.708;2023-04-30T11:58:48;23.80;45.50
80210;DHT22;69529;37.974;23.708;2023-04-30T12:01:17;23.90;45.60
80210;DHT22;69529;37.974;23.708;2023-04-30T12:03:47;23.80;45.60
80210;DHT22;69529;37.974;23.708;2023-04-30T12:06:23;23.80;45.70
80210;DHT22;69529;37.974;23.708;2023-04-30T12:08:56;23.80;45.60
80210;DHT22;69529;37.974;23.708;2023-04-30T12:11:30;23.80;45.60
80210;DHT22;69529;37.974;23.708;2023-04-30T12:13:55;23.90;45.60
80210;DHT22;69529;37.974;23.708;2023-04-30T12:16:24;23.90;45.50
80210;DHT22;69529;37.974;23.708;2023-04-30T12:18:52;23.90;45.60
80210;DHT22;69529;37.974;23.708;2023-04-30T12:21:21;23.90;45.70
80210;DHT22;69529;37.974;23.708;2023-04-30T12:23:49;23.90;45.70
80210;DHT22;69529;37.974;23.708;2023-04-30T12:26:16;23.90;45.70
80210;DHT22;69529;37.974;23.708;2023-04-30T12:28:46;23.90;45.60
80210;DHT22;69529;37.974;23.708;2023-04-30T12:31:18;23.90;45.60
80210;DHT22;69529;37.974;23.708;2023-04-30T12:33:53;23.90;45.60
80210;DHT22;69529;37.974;23.708;2023-04-30T12:36:27;23.80;45.60
80210;DHT22;69529;37.974;23.708;2023-04-30T12:39:12;23.80;45.80
80210;DHT22;69529;37.974;23.708;2023-04-30T12:41:46;23.80;45.90
80210;DHT22;69529;37.974;23.708;2023-04-30T12:44:22;23.80;45.90
80210;DHT22;69529;37.974;23.708;2023-04-30T12:46:52;23.80;45.90
80210;DHT22;69529;37.974;23.708;2023-04-30T12:49:29;23.70;46.10
80210;DHT22;69529;37.974;23.708;2023-04-30T12:52:02;23.70;46.20
80210;DHT22;69529;37.974;23.708;2023-04-30T12:54:31;23.70;46.10
80210;DHT22;69529;37.974;23.708;2023-04-30T12:57:01;23.70;46.00
80210;DHT22;69529;37.974;23.708;2023-04-30T12:59:35;23.70;46.10
80210;DHT22;69529;37.974;23.708;2023-04-30T13:02:11;23.70;46.20
80210;DHT22;69529;37.974;23.708;2023-04-30T13:04:40;23.60;46.10
80210;DHT22;69529;37.974;23.708;2023-04-30T13:07:08;23.60;46.20
80210;DHT22;69529;37.974;23.708;2023-04-30T13:09:37;23.60;46.40
80210;DHT22;69529;37.974;23.708;2023-04-30T13:12:05;23.60;46.30
80210;DHT22;69529;37.974;23.708;2023-04-30T13:14:33;23.60;46.90
80210;DHT22;69529;37.974;23.708;2023-04-30T13:17:03;23.60;46.50
80210;DHT22;69529;37.974;23.708;2023-04-30T13:19:32;23.60;46.50
80210;DHT22;69529;37.974;23.708;2023-04-30T13:22:03;23.60;46.60
80210;DHT22;69529;37.974;23.708;2023-04-30T13:24:30;23.50;46.70
80210;DHT22;69529;37.974;23.708;2023-04-30T13:26:58;23.50;46.60
80210;DHT22;69529;37.974;23.708;2023-04-30T13:29:26;23.50;46.80
80210;DHT22;69529;37.974;23.708;2023-04-30T13:31:53;23.50;46.80
80210;DHT22;69529;37.974;23.708;2023-04-30T13:34:21;23.50;47.00
80210;DHT22;69529;37.974;23.708;2023-04-30T13:36:49;23.40;47.00
80210;DHT22;69529;37.974;23.708;2023-04-30T13:39:18;23.50;46.90
80210;DHT22;69529;37.974;23.708;2023-04-30T13:41:46;23.50;47.00
80210;DHT22;69529;37.974;23.708;2023-04-30T13:44:14;23.50;46.80
80210;DHT22;69529;37.974;23.708;2023-04-30T13:46:42;23.50;46.80
80210;DHT22;69529;37.974;23.708;2023-04-30T13:49:10;23.60;47.60
80210;DHT22;69529;37.974;23.708;2023-04-30T13:51:38;23.50;47.00
80210;DHT22;69529;37.974;23.708;2023-04-30T13:54:05;23.50;47.20
80210;DHT22;69529;37.974;23.708;2023-04-30T13:56:33;23.50;47.40
80210;DHT22;69529;37.974;23.708;2023-04-30T13:59:00;23.50;47.40
80210;DHT22;69529;37.974;23.708;2023-04-30T14:01:28;23.50;47.30
80210;DHT22;69529;37.974;23.708;2023-04-30T14:03:58;23.60;48.00
80210;DHT22;69529;37.974;23.708;2023-04-30T14:06:25;23.60;47.20
80210;DHT22;69529;37.974;23.708;2023-04-30T14:08:55;23.60;47.40
80210;DHT22;69529;37.974;23.708;2023-04-30T14:11:22;23.50;47.50
80210;DHT22;69529;37.974;23.708;2023-04-30T14:13:50;23.50;47.90
80210;DHT22;69529;37.974;23.708;2023-04-30T14:16:18;23.50;47.80
80210;DHT22;69529;37.974;23.708;2023-04-30T14:18:46;23.50;48.00
80210;DHT22;69529;37.974;23.708;2023-04-30T14:21:14;23.60;48.00
80210;DHT22;69529;37.974;23.708;2023-04-30T14:23:41;23.50;48.00
80210;DHT22;69529;37.974;23.708;2023-04-30T14:26:11;23.60;48.10
80210;DHT22;69529;37.974;23.708;2023-04-30T14:28:38;23.50;48.20
80210;DHT22;69529;37.974;23.708;2023-04-30T14:31:06;23.50;48.30
80210;DHT22;69529;37.974;23.708;2023-04-30T14:33:34;23.50;48.40
80210;DHT22;69529;37.974;23.708;2023-04-30T14:38:38;23.60;48.30
80210;DHT22;69529;37.974;23.708;2023-04-30T14:41:05;23.60;48.50
80210;DHT22;69529;37.974;23.708;2023-04-30T14:43:33;23.60;48.40
80210;DHT22;69529;37.974;23.708;2023-04-30T14:46:01;23.60;48.50
80210;DHT22;69529;37.974;23.708;2023-04-30T14:48:28;23.50;48.60
80210;DHT22;69529;37.974;23.708;2023-04-30T14:50:56;23.60;48.80
80210;DHT22;69529;37.974;23.708;2023-04-30T14:53:24;23.60;48.80
80210;DHT22;69529;37.974;23.708;2023-04-30T14:55:52;23.60;48.90
80210;DHT22;69529;37.974;23.708;2023-04-30T14:58:19;23.50;48.80
80210;DHT22;69529;37.974;23.708;2023-04-30T15:00:48;23.50;48.80
80210;DHT22;69529;37.974;23.708;2023-04-30T15:03:16;23.60;48.80
80210;DHT22;69529;37.974;23.708;2023-04-30T15:05:44;23.50;49.10
80210;DHT22;69529;37.974;23.708;2023-04-30T15:08:12;23.50;49.40
80210;DHT22;69529;37.974;23.708;2023-04-30T15:10:40;23.40;49.30
80210;DHT22;69529;37.974;23.708;2023-04-30T15:13:08;23.40;49.20
80210;DHT22;69529;37.974;23.708;2023-04-30T15:15:36;23.50;49.20
80210;DHT22;69529;37.974;23.708;2023-04-30T15:18:04;23.50;49.10
80210;DHT22;69529;37.974;23.708;2023-04-30T15:20:32;23.50;49.10
80210;DHT22;69529;37.974;23.708;2023-04-30T15:23:00;23.50;49.20
80210;DHT22;69529;37.974;23.708;2023-04-30T15:25:28;23.40;49.30
80210;DHT22;69529;37.974;23.708;2023-04-30T15:27:55;23.50;49.30
80210;DHT22;69529;37.974;23.708;2023-04-30T15:30:23;23.50;49.40
80210;DHT22;69529;37.974;23.708;2023-04-30T15:32:51;23.40;49.60
80210;DHT22;69529;37.974;23.708;2023-04-30T15:35:19;23.40;49.40
80210;DHT22;69529;37.974;23.708;2023-04-30T15:37:46;23.40;49.50
80210;DHT22;69529;37.974;23.708;2023-04-30T15:40:14;23.40;49.50
80210;DHT22;69529;37.974;23.708;2023-04-30T15:42:42;23.40;49.60
80210;DHT22;69529;37.974;23.708;2023-04-30T15:45:10;23.40;49.80
80210;DHT22;69529;37.974;23.708;2023-04-30T15:47:38;23.40;50.00